createdAt,value
2019-03-09T00:01:55.411Z,98806.66
2019-03-09T00:04:25.046Z,98803.20
2019-03-09T00:06:54.984Z,98814.06
2019-03-09T00:09:43.518Z,98815.20
2019-03-09T00:15:06.992Z,98811.47
2019-03-09T00:17:37.402Z,98811.47
2019-03-09T00:20:07.039Z,98821.90
2019-03-09T00:22:36.459Z,98806.02
2019-03-09T00:25:25.130Z,98830.30
2019-03-09T00:31:10.493Z,98824.60
2019-03-09T00:33:40.114Z,98824.60
2019-03-09T00:36:09.728Z,98826.34
2019-03-09T00:38:42.254Z,98824.60
2019-03-09T00:41:11.716Z,98824.60
2019-03-09T00:43:41.178Z,98828.23
2019-03-09T00:46:29.747Z,98825.73
2019-03-09T00:48:59.172Z,98836.53
2019-03-09T00:51:28.553Z,98836.53
2019-03-09T00:53:59.717Z,98842.30
2019-03-09T00:56:29.193Z,98842.30
2019-03-09T00:59:01.285Z,98845.11
2019-03-09T01:01:30.773Z,98842.48
2019-03-09T01:04:00.306Z,98843.16
2019-03-09T01:06:30.032Z,98842.66
2019-03-09T01:08:59.548Z,98845.50
2019-03-09T01:11:48.658Z,98839.52
2019-03-09T01:14:37.280Z,98831.62
2019-03-09T01:17:18.357Z,98831.62
2019-03-09T01:19:48.276Z,98832.83
2019-03-09T01:25:26.154Z,98838.59
2019-03-09T01:27:55.988Z,98828.59
2019-03-09T01:30:25.877Z,98842.22
2019-03-09T01:32:57.704Z,98839.91
2019-03-09T01:35:46.370Z,98846.50
2019-03-09T01:38:27.150Z,98846.50
2019-03-09T01:40:59.740Z,98839.91
2019-03-09T01:46:04.341Z,98831.72
2019-03-09T01:48:45.234Z,98831.72
2019-03-09T01:54:46.146Z,98836.99
2019-03-09T02:00:02.127Z,98834.89
2019-03-09T02:02:53.068Z,98831.91
2019-03-09T02:05:34.061Z,98831.91
2019-03-09T02:08:03.530Z,98836.85
2019-03-09T02:10:33.071Z,98835.39
2019-03-09T02:13:25.110Z,98839.02
2019-03-09T02:15:54.796Z,98825.28
2019-03-09T02:18:24.952Z,98825.28
2019-03-09T02:21:13.415Z,98830.02
2019-03-09T02:23:42.903Z,98829.69
2019-03-09T02:26:15.117Z,98834.58
2019-03-09T02:28:44.589Z,98834.39
2019-03-09T02:31:14.021Z,98828.80
2019-03-09T02:33:43.448Z,98822.05
2019-03-09T02:36:32.611Z,98814.88
2019-03-09T02:42:28.431Z,98813.11
2019-03-09T02:44:57.941Z,98813.11
2019-03-09T02:47:27.492Z,98815.73
2019-03-09T02:49:58.965Z,98808.26
2019-03-09T02:52:28.398Z,98819.22
2019-03-09T02:55:16.827Z,98806.88
2019-03-09T02:57:49.865Z,98806.88
2019-03-09T03:00:40.087Z,98792.06
2019-03-09T03:03:09.430Z,98793.70
2019-03-09T03:05:39.241Z,98792.67
2019-03-09T03:10:43.678Z,98783.13
2019-03-09T03:13:13.168Z,98783.13
2019-03-09T03:15:42.615Z,98781.89
2019-03-09T03:21:00.397Z,98785.61
2019-03-09T03:23:48.864Z,98783.53
2019-03-09T03:26:18.446Z,98783.53
2019-03-09T03:28:47.839Z,98776.08
2019-03-09T03:31:17.270Z,98782.41
2019-03-09T03:33:46.815Z,98782.41
2019-03-09T03:36:16.218Z,98777.52
2019-03-09T03:38:45.613Z,98786.02
2019-03-09T03:41:15.381Z,98786.75
2019-03-09T03:43:44.911Z,98789.97
2019-03-09T03:46:22.510Z,98787.89
2019-03-09T03:48:52.119Z,98781.87
2019-03-09T03:51:21.828Z,98778.68
2019-03-09T03:56:40.417Z,98775.84
2019-03-09T03:59:09.934Z,98770.61
2019-03-09T04:01:39.373Z,98770.37
2019-03-09T04:04:27.969Z,98754.56
2019-03-09T04:07:09.678Z,98753.19
2019-03-09T04:09:39.381Z,98749.80
2019-03-09T04:12:08.885Z,98747.06
2019-03-09T04:14:38.371Z,98735.80
2019-03-09T04:17:28.018Z,98742.56
2019-03-09T04:19:57.500Z,98741.48
2019-03-09T04:22:26.977Z,98737.14
2019-03-09T04:24:56.733Z,98736.14
2019-03-09T04:27:26.244Z,98731.86
2019-03-09T04:32:45.231Z,98727.66
2019-03-09T04:35:14.771Z,98717.41
2019-03-09T04:37:44.154Z,98719.86
2019-03-09T04:40:15.479Z,98711.55
2019-03-09T04:42:44.873Z,98704.33
2019-03-09T04:45:14.699Z,98703.20
2019-03-09T04:47:44.121Z,98698.23
2019-03-09T04:50:13.562Z,98696.09
2019-03-09T04:52:42.945Z,98691.13
2019-03-09T04:55:12.779Z,98693.26
2019-03-09T04:57:42.156Z,98687.04
2019-03-09T05:00:32.110Z,98684.91
2019-03-09T05:03:01.504Z,98678.49
2019-03-09T05:05:31.007Z,98673.09
2019-03-09T05:08:12.585Z,98666.40
2019-03-09T05:14:08.012Z,98660.37
2019-03-09T05:16:37.843Z,98656.72
2019-03-09T05:19:07.290Z,98659.75
2019-03-09T05:21:37.553Z,98657.30
2019-03-09T05:24:07.009Z,98651.08
2019-03-09T05:26:36.531Z,98652.11
2019-03-09T05:29:25.137Z,98648.44
2019-03-09T05:34:54.195Z,98634.23
2019-03-09T05:37:44.223Z,98625.81
2019-03-09T05:40:13.724Z,98621.22
2019-03-09T05:42:43.297Z,98616.74
2019-03-09T05:45:12.692Z,98609.52
2019-03-09T05:47:42.150Z,98603.30
2019-03-09T05:50:11.691Z,98603.61
2019-03-09T05:52:41.721Z,98594.88
2019-03-09T05:55:30.487Z,98582.69
2019-03-09T05:58:00.100Z,98588.28
2019-03-09T06:00:29.594Z,98582.50
2019-03-09T06:02:59.361Z,98579.67
2019-03-09T06:06:06.747Z,98578.78
2019-03-09T06:08:36.213Z,98579.09
2019-03-09T06:11:05.601Z,98573.00
2019-03-09T06:13:35.147Z,98574.81
2019-03-09T06:16:04.551Z,98574.31
2019-03-09T06:19:20.752Z,98570.05
2019-03-09T06:21:50.424Z,98575.64
2019-03-09T06:24:19.806Z,98577.96
2019-03-09T06:26:49.260Z,98572.18
2019-03-09T06:29:37.563Z,98567.52
2019-03-09T06:32:18.904Z,98565.50
2019-03-09T06:37:26.762Z,98568.48
2019-03-09T06:39:57.335Z,98564.05
2019-03-09T06:43:04.803Z,98563.24
2019-03-09T06:45:34.237Z,98556.28
2019-03-09T06:48:03.665Z,98547.46
2019-03-09T06:50:33.113Z,98542.41
2019-03-09T06:53:21.590Z,98529.52
2019-03-09T06:55:51.066Z,98529.52
2019-03-09T06:58:20.441Z,98527.38
2019-03-09T07:00:49.855Z,98522.30
2019-03-09T07:03:19.230Z,98517.23
2019-03-09T07:06:07.849Z,98500.84
2019-03-09T07:08:39.378Z,98495.56
2019-03-09T07:13:57.035Z,98498.69
2019-03-09T07:16:45.431Z,98505.72
2019-03-09T07:19:26.198Z,98481.41
2019-03-09T07:24:36.834Z,98487.15
2019-03-09T07:27:06.237Z,98478.91
2019-03-09T07:29:35.642Z,98481.01
2019-03-09T07:32:05.127Z,98482.63
2019-03-09T07:34:34.554Z,98465.73
2019-03-09T07:37:03.940Z,98468.95
2019-03-09T07:39:33.393Z,98468.03
2019-03-09T07:42:02.806Z,98459.08
2019-03-09T07:44:34.211Z,98451.33
2019-03-09T07:47:03.373Z,98451.98
2019-03-09T07:49:32.822Z,98447.97
2019-03-09T07:52:02.244Z,98442.37
2019-03-09T07:54:31.755Z,98433.09
2019-03-09T07:59:49.828Z,98428.11
2019-03-09T08:02:19.214Z,98425.77
2019-03-09T08:04:48.720Z,98419.84
2019-03-09T08:07:18.386Z,98419.78
2019-03-09T08:09:47.758Z,98408.37
2019-03-09T08:12:17.147Z,98399.29
2019-03-09T08:14:46.535Z,98395.34
2019-03-09T08:17:15.939Z,98387.67
2019-03-09T08:19:45.367Z,98386.75
2019-03-09T08:22:26.967Z,98381.34
2019-03-09T08:27:50.720Z,98375.13
2019-03-09T08:30:24.176Z,98369.77
2019-03-09T08:32:53.832Z,98359.33
2019-03-09T08:35:23.366Z,98355.55
2019-03-09T08:38:12.113Z,98354.25
2019-03-09T08:40:42.795Z,98359.09
2019-03-09T08:45:53.699Z,98341.80
2019-03-09T08:48:23.247Z,98339.60
2019-03-09T08:56:40.050Z,98331.84
2019-03-09T08:59:09.753Z,98320.86
2019-03-09T09:01:58.015Z,98320.52
2019-03-09T09:04:27.610Z,98320.70
2019-03-09T09:06:57.179Z,98323.87
2019-03-09T09:09:26.798Z,98312.15
2019-03-09T09:12:02.606Z,98313.77
2019-03-09T09:14:32.042Z,98310.38
2019-03-09T09:17:01.447Z,98305.80
2019-03-09T09:19:30.897Z,98312.78
2019-03-09T09:22:00.269Z,98308.89
2019-03-09T09:24:41.283Z,98303.08
2019-03-09T09:30:18.470Z,98286.55
2019-03-09T09:32:47.969Z,98290.82
2019-03-09T09:35:57.685Z,98279.33
2019-03-09T09:38:27.275Z,98275.95
2019-03-09T09:40:56.926Z,98277.92
2019-03-09T09:43:26.380Z,98270.45
2019-03-09T09:48:49.694Z,98275.11
2019-03-09T09:51:19.065Z,98265.77
2019-03-09T09:53:48.431Z,98258.38
2019-03-09T09:56:17.970Z,98243.80
2019-03-09T09:58:47.426Z,98243.74
2019-03-09T10:01:16.793Z,98239.75
2019-03-09T10:03:46.211Z,98238.41
2019-03-09T10:06:18.062Z,98236.80
2019-03-09T10:08:47.500Z,98226.13
2019-03-09T10:11:16.978Z,98232.78
2019-03-09T10:14:01.396Z,98221.02
2019-03-09T10:19:05.770Z,98202.43
2019-03-09T10:21:35.228Z,98202.95
2019-03-09T10:24:04.627Z,98203.19
2019-03-09T10:26:45.557Z,98194.16
2019-03-09T10:32:09.000Z,98188.92
2019-03-09T10:34:38.415Z,98178.23
2019-03-09T10:37:08.034Z,98175.17
2019-03-09T10:39:39.281Z,98167.66
2019-03-09T10:45:03.776Z,98156.77
2019-03-09T10:53:20.389Z,98134.75
2019-03-09T10:56:01.836Z,98133.30
2019-03-09T10:58:31.236Z,98122.50
2019-03-09T11:01:00.673Z,98118.28
2019-03-09T11:03:30.250Z,98110.30
2019-03-09T11:05:59.675Z,98112.58
2019-03-09T11:08:34.167Z,98104.19
2019-03-09T11:11:42.918Z,98105.36
2019-03-09T11:14:12.395Z,98099.02
2019-03-09T11:19:30.339Z,98078.46
2019-03-09T11:21:59.746Z,98070.06
2019-03-09T11:24:29.382Z,98068.16
2019-03-09T11:29:33.946Z,98049.50
2019-03-09T11:32:03.454Z,98050.34
2019-03-09T11:34:32.938Z,98046.67
2019-03-09T11:37:02.302Z,98040.49
2019-03-09T11:39:31.751Z,98033.80
2019-03-09T11:42:01.150Z,98034.88
2019-03-09T11:44:30.611Z,98023.14
2019-03-09T11:47:00.444Z,98023.73
2019-03-09T11:49:29.822Z,98011.94
2019-03-09T11:51:59.321Z,98006.33
2019-03-09T11:54:28.813Z,98001.94
2019-03-09T11:57:00.165Z,97999.92
2019-03-09T11:59:29.556Z,97987.33
2019-03-09T12:02:11.144Z,97973.42
2019-03-09T12:04:46.797Z,97969.36
2019-03-09T12:07:31.024Z,97967.26
2019-03-09T12:10:00.455Z,97956.59
2019-03-09T12:12:29.818Z,97964.77
2019-03-09T12:14:59.523Z,97949.02
2019-03-09T12:26:01.702Z,97930.89
2019-03-09T12:28:31.096Z,97929.66
2019-03-09T12:31:00.464Z,97927.31
2019-03-09T12:36:04.525Z,97909.12
2019-03-09T12:41:16.347Z,97912.02
2019-03-09T12:43:33.763Z,97902.88
2019-03-09T12:46:03.190Z,97896.14
2019-03-09T12:48:32.738Z,97893.08
2019-03-09T12:51:02.265Z,97890.26
2019-03-09T12:53:52.797Z,97889.13
2019-03-09T12:56:22.279Z,97877.55
2019-03-09T12:59:04.612Z,97876.13
2019-03-09T13:01:34.558Z,97867.73
2019-03-09T13:07:12.944Z,97864.48
2019-03-09T13:09:44.824Z,97853.50
2019-03-09T13:12:14.226Z,97853.61
2019-03-09T13:14:43.788Z,97850.85
2019-03-09T13:17:15.692Z,97843.05
2019-03-09T13:19:45.559Z,97842.25
2019-03-09T13:22:15.057Z,97827.36
2019-03-09T13:24:46.146Z,97823.98
2019-03-09T13:27:15.551Z,97827.73
2019-03-09T13:32:19.817Z,97818.80
2019-03-09T13:34:49.468Z,97811.39
2019-03-09T13:37:18.889Z,97801.13
2019-03-09T13:39:48.275Z,97799.23
2019-03-09T13:42:17.816Z,97795.12
2019-03-09T13:44:47.227Z,97793.45
2019-03-09T13:47:16.648Z,97782.49
2019-03-09T13:50:19.605Z,97782.63
2019-03-09T13:55:30.965Z,97776.33
2019-03-09T13:58:00.393Z,97768.31
2019-03-09T14:00:40.409Z,97765.84
2019-03-09T14:03:05.989Z,97757.35
2019-03-09T14:06:08.256Z,97754.11
2019-03-09T14:08:25.677Z,97756.20
2019-03-09T14:13:48.940Z,97741.69
2019-03-09T14:16:18.337Z,97731.63
2019-03-09T14:18:47.730Z,97733.33
2019-03-09T14:21:17.230Z,97720.05
2019-03-09T14:23:46.780Z,97728.67
2019-03-09T14:26:16.175Z,97718.03
2019-03-09T14:28:45.707Z,97707.16
2019-03-09T14:31:15.091Z,97707.97
2019-03-09T14:34:05.592Z,97701.04
2019-03-09T14:36:42.150Z,97703.42
2019-03-09T14:39:11.577Z,97697.49
2019-03-09T14:41:41.102Z,97693.66
2019-03-09T14:44:10.546Z,97689.83
2019-03-09T14:46:40.366Z,97690.91
2019-03-09T14:49:09.871Z,97686.88
2019-03-09T14:51:39.376Z,97672.80
2019-03-09T14:54:08.968Z,97676.25
2019-03-09T14:56:38.374Z,97674.36
2019-03-09T14:59:07.887Z,97662.61
2019-03-09T15:01:37.552Z,97661.52
2019-03-09T15:04:07.055Z,97655.64
2019-03-09T15:06:37.006Z,97650.61
2019-03-09T15:09:17.997Z,97647.94
2019-03-09T15:14:28.717Z,97642.83
2019-03-09T15:16:58.291Z,97642.83
2019-03-09T15:19:27.836Z,97638.48
2019-03-09T15:24:50.888Z,97631.02
2019-03-09T15:32:36.325Z,97616.05
2019-03-09T15:35:06.526Z,97620.31
2019-03-09T15:37:36.008Z,97612.06
2019-03-09T15:40:44.848Z,97612.63
2019-03-09T15:43:14.260Z,97612.67
2019-03-09T15:46:02.951Z,97608.98
2019-03-09T15:48:35.481Z,97602.38
2019-03-09T15:51:04.963Z,97598.08
2019-03-09T15:53:34.437Z,97582.62
2019-03-09T15:56:24.472Z,97578.83
2019-03-09T15:58:56.337Z,97569.25
2019-03-09T16:01:26.035Z,97572.20
2019-03-09T16:03:55.412Z,97575.94
2019-03-09T16:06:27.701Z,97573.28
2019-03-09T16:08:57.242Z,97567.89
2019-03-09T16:11:27.039Z,97564.70
2019-03-09T16:13:57.193Z,97558.30
2019-03-09T16:16:46.985Z,97560.44
2019-03-09T16:19:17.029Z,97560.92
2019-03-09T16:21:46.446Z,97549.94
2019-03-09T16:24:15.827Z,97543.29
2019-03-09T16:27:04.364Z,97541.68
2019-03-09T16:29:33.767Z,97534.80
2019-03-09T16:32:03.182Z,97535.84
2019-03-09T16:34:33.680Z,97533.72
2019-03-09T16:37:03.022Z,97534.00
2019-03-09T16:39:32.452Z,97529.21
2019-03-09T16:42:02.335Z,97529.98
2019-03-09T16:44:31.917Z,97530.30
2019-03-09T16:47:01.417Z,97530.26
2019-03-09T16:49:49.759Z,97538.22
2019-03-09T16:52:19.372Z,97532.63
2019-03-09T16:54:48.736Z,97529.73
2019-03-09T17:00:32.292Z,97521.48
2019-03-09T17:03:13.303Z,97527.88
2019-03-09T17:05:44.902Z,97526.16
2019-03-09T17:08:16.836Z,97521.03
2019-03-09T17:10:46.451Z,97524.37
2019-03-09T17:13:15.853Z,97525.92
2019-03-09T17:15:45.403Z,97521.90
2019-03-09T17:18:17.031Z,97523.19
2019-03-09T17:20:46.416Z,97524.80
2019-03-09T17:23:15.857Z,97521.09
2019-03-09T17:25:45.361Z,97525.12
2019-03-09T17:28:14.832Z,97531.52
2019-03-09T17:30:44.469Z,97525.17
2019-03-09T17:33:13.936Z,97530.19
2019-03-09T17:35:43.455Z,97524.31
2019-03-09T17:38:13.115Z,97529.86
2019-03-09T17:40:43.686Z,97527.41
2019-03-09T17:48:46.003Z,97535.55
2019-03-09T17:51:15.376Z,97535.75
2019-03-09T17:54:05.761Z,97539.62
2019-03-09T17:56:35.240Z,97537.87
2019-03-09T17:59:04.668Z,97543.23
2019-03-09T18:01:34.661Z,97544.45
2019-03-09T18:06:47.552Z,97544.75
2019-03-09T18:12:13.368Z,97548.16
2019-03-09T18:14:43.278Z,97542.56
2019-03-09T18:17:12.704Z,97552.02
2019-03-09T18:20:01.010Z,97542.67
2019-03-09T18:22:30.481Z,97541.81
2019-03-09T18:25:00.007Z,97538.82
2019-03-09T18:27:29.575Z,97541.91
2019-03-09T18:29:59.213Z,97539.95
2019-03-09T18:32:28.796Z,97549.40
2019-03-09T18:34:58.388Z,97553.29
2019-03-09T18:37:28.061Z,97551.34
2019-03-09T18:39:57.607Z,97551.51
2019-03-09T18:42:27.295Z,97550.73
2019-03-09T18:44:59.186Z,97550.73
2019-03-09T18:47:28.952Z,97556.45
2019-03-09T18:49:58.480Z,97552.08
2019-03-09T18:52:28.048Z,97558.34
2019-03-09T18:54:57.587Z,97561.80
2019-03-09T18:57:27.264Z,97554.16
2019-03-09T18:59:56.913Z,97554.16
2019-03-09T19:02:26.471Z,97557.91
2019-03-09T19:05:07.542Z,97563.06
2019-03-09T19:07:52.925Z,97566.52
2019-03-09T19:10:12.195Z,97568.70
2019-03-09T19:15:31.065Z,97571.63
2019-03-09T19:21:00.626Z,97583.95
2019-03-09T19:23:30.199Z,97582.14
2019-03-09T19:25:59.618Z,97579.50
2019-03-09T19:28:35.268Z,97576.34
2019-03-09T19:31:23.571Z,97581.62
2019-03-09T19:33:53.365Z,97584.63
2019-03-09T19:36:41.960Z,97581.46
2019-03-09T19:44:39.516Z,97588.25
2019-03-09T19:47:09.246Z,97588.38
2019-03-09T19:49:59.846Z,97596.55
2019-03-09T19:55:25.438Z,97597.36
2019-03-09T19:57:55.065Z,97598.45
2019-03-09T20:00:24.418Z,97604.33
2019-03-09T20:02:56.275Z,97605.42
2019-03-09T20:05:28.023Z,97604.41
2019-03-09T20:07:57.619Z,97603.67
2019-03-09T20:10:27.225Z,97603.79
2019-03-09T20:12:56.738Z,97606.09
2019-03-09T20:15:26.440Z,97611.21
2019-03-09T20:17:56.046Z,97609.92
2019-03-09T20:20:25.651Z,97619.99
2019-03-09T20:22:55.075Z,97610.98
2019-03-09T20:25:24.492Z,97614.76
2019-03-09T20:27:55.673Z,97617.92
2019-03-09T20:30:25.249Z,97623.73
2019-03-09T20:32:54.769Z,97624.02
2019-03-09T20:35:24.260Z,97634.91
2019-03-09T20:38:13.894Z,97650.33
2019-03-09T20:40:54.966Z,97641.94
2019-03-09T20:43:24.736Z,97652.46
2019-03-09T20:45:57.639Z,97649.08
2019-03-09T20:48:27.174Z,97658.16
2019-03-09T20:51:05.829Z,97663.91
2019-03-09T20:53:35.234Z,97662.55
2019-03-09T20:56:23.806Z,97673.13
2019-03-09T20:58:53.414Z,97672.42
2019-03-09T21:01:24.839Z,97679.84
2019-03-09T21:03:54.825Z,97683.23
2019-03-09T21:06:43.972Z,97683.23
2019-03-09T21:09:25.228Z,97692.94
2019-03-09T21:11:55.903Z,97700.85
2019-03-09T21:14:25.358Z,97709.41
2019-03-09T21:17:00.063Z,97704.69
2019-03-09T21:19:29.473Z,97715.27
2019-03-09T21:22:03.981Z,97716.84
2019-03-09T21:24:33.413Z,97717.09
2019-03-09T21:27:23.436Z,97723.84
2019-03-09T21:29:54.071Z,97716.08
2019-03-09T21:37:46.508Z,97736.49
2019-03-09T21:40:16.065Z,97745.67
2019-03-09T21:42:45.462Z,97754.10
2019-03-09T21:45:14.925Z,97758.23
2019-03-09T21:47:44.322Z,97759.82
2019-03-09T21:50:14.311Z,97768.17
2019-03-09T21:52:52.770Z,97770.38
2019-03-09T21:55:40.605Z,97779.19
2019-03-09T21:58:10.290Z,97791.50
2019-03-09T22:00:39.697Z,97799.11
2019-03-09T22:03:09.282Z,97799.88
2019-03-09T22:05:38.784Z,97801.78
2019-03-09T22:10:57.925Z,97809.91
2019-03-09T22:13:27.375Z,97812.34
2019-03-09T22:15:58.980Z,97816.95
2019-03-09T22:21:06.292Z,97824.63
2019-03-09T22:26:16.586Z,97828.47
2019-03-09T22:28:57.972Z,97836.48
2019-03-09T22:31:27.586Z,97842.77
2019-03-09T22:33:57.123Z,97858.34
2019-03-09T22:36:26.723Z,97861.70
2019-03-09T22:38:56.404Z,97864.85
2019-03-09T22:41:26.384Z,97866.89
2019-03-09T22:43:55.832Z,97876.36
2019-03-09T22:46:25.393Z,97884.19
2019-03-09T22:49:13.659Z,97887.03
2019-03-09T22:54:24.629Z,97898.17
2019-03-09T22:56:54.167Z,97890.52
2019-03-09T22:59:23.654Z,97895.40
2019-03-09T23:01:53.295Z,97893.57
2019-03-09T23:04:22.979Z,97899.77
2019-03-09T23:07:11.503Z,97910.63
2019-03-09T23:09:41.025Z,97920.52
2019-03-09T23:12:10.439Z,97925.28
2019-03-09T23:14:40.356Z,97928.67
2019-03-09T23:17:09.853Z,97933.88
2019-03-09T23:19:39.418Z,97936.22
2019-03-09T23:22:08.987Z,97946.38
2019-03-09T23:24:38.391Z,97944.66
2019-03-09T23:27:35.819Z,97951.45
2019-03-09T23:30:16.947Z,97955.12
2019-03-09T23:32:46.395Z,97965.14
2019-03-09T23:35:36.285Z,97964.26
2019-03-09T23:38:05.694Z,97968.30
2019-03-09T23:40:35.096Z,97970.22
2019-03-09T23:43:04.601Z,97983.39
2019-03-09T23:45:36.911Z,97985.92
2019-03-09T23:48:06.295Z,97991.91
2019-03-09T23:50:35.762Z,97993.53
2019-03-09T23:53:05.212Z,97993.53
2019-03-09T23:55:34.836Z,97990.09
2019-03-09T23:58:04.210Z,97985.73
